Time;durP1;ratioP1;P1;durP2;ratioP2;P2;SDS_P1;SDS_P2;PMS_P1;PMS_P2;Temp;Humidity;BMP_temperature;BMP_pressure;BME280_temperature;BME280_humidity;BME280_pressure;Samples;Min_cycle;Max_cycle;Signal;HPM_P1;HPM_P2
2022/09/16 00:00:00;;;;;;;;;;;10.80;99.90;;;;;;5099208;27;19934;-68
2022/09/16 00:02:26;;;;;;;;;;;10.80;99.90;;;;;;5098192;28;20603;-68
2022/09/16 00:04:52;;;;;;;;;;;10.70;99.90;;;;;;5084922;27;19923;-68
2022/09/16 00:07:19;;;;;;;;;;;10.50;99.90;;;;;;5077651;28;19924;-67
2022/09/16 00:09:44;;;;;;;;;;;10.50;99.90;;;;;;5084215;28;20494;-68
2022/09/16 00:12:10;;;;;;;;;;;10.60;99.90;;;;;;5086294;27;19934;-68
2022/09/16 00:14:36;;;;;;;;;;;10.60;99.90;;;;;;5079074;28;19935;-68
2022/09/16 00:17:01;;;;;;;;;;;10.50;99.90;;;;;;5079310;28;20355;-69
2022/09/16 00:19:27;;;;;;;;;;;10.60;99.90;;;;;;5078673;28;19999;-66
2022/09/16 00:21:52;;;;;;;;;;;10.70;99.90;;;;;;5082241;28;19919;-68
2022/09/16 00:24:18;;;;;;;;;;;10.70;99.90;;;;;;5099611;27;19930;-71
2022/09/16 00:26:43;;;;;;;;;;;10.70;99.90;;;;;;5092050;28;20375;-68
2022/09/16 00:29:09;;;;;;;;;;;10.80;99.90;;;;;;5091368;28;19997;-70
2022/09/16 00:31:34;;;;;;;;;;;10.70;99.90;;;;;;5093305;28;19927;-69
2022/09/16 00:34:00;;;;;;;;;;;10.90;99.90;;;;;;5092865;28;19928;-68
2022/09/16 00:36:26;;;;;;;;;;;10.60;99.90;;;;;;5092100;28;20010;-68
2022/09/16 00:38:53;;;;;;;;;;;10.70;99.90;;;;;;5092508;27;19924;-66
2022/09/16 00:41:21;;;;;;;;;;;10.80;99.90;;;;;;5092370;28;19924;-67
2022/09/16 00:43:57;;;;;;;;;;;10.80;99.90;;;;;;5092256;28;19971;-67
2022/09/16 00:46:29;;;;;;;;;;;10.60;99.90;;;;;;5092426;28;19923;-69
2022/09/16 00:48:55;;;;;;;;;;;10.70;99.90;;;;;;5091716;28;19963;-67
2022/09/16 00:51:21;;;;;;;;;;;10.50;99.90;;;;;;5088704;28;20310;-69
2022/09/16 00:53:50;;;;;;;;;;;10.50;99.90;;;;;;5091953;28;19928;-68
2022/09/16 00:56:21;;;;;;;;;;;10.40;99.90;;;;;;5090754;28;19968;-68
2022/09/16 00:59:08;;;;;;;;;;;10.50;99.90;;;;;;5092227;28;19923;-68
2022/09/16 01:01:34;;;;;;;;;;;10.40;99.90;;;;;;5091876;28;19923;-67
2022/09/16 01:04:05;;;;;;;;;;;10.30;99.90;;;;;;5083716;28;20121;-68
2022/09/16 01:06:34;;;;;;;;;;;10.40;99.90;;;;;;5073099;28;19924;-68
2022/09/16 01:09:00;;;;;;;;;;;10.40;99.90;;;;;;5072674;28;20268;-67
2022/09/16 01:11:26;;;;;;;;;;;10.30;99.90;;;;;;5054247;28;20232;-67
2022/09/16 01:13:52;;;;;;;;;;;10.50;99.90;;;;;;5082322;28;19923;-69
2022/09/16 01:16:17;;;;;;;;;;;10.60;99.90;;;;;;5090715;28;19923;-67
2022/09/16 01:19:03;;;;;;;;;;;10.50;99.90;;;;;;5091590;28;19924;-68
2022/09/16 01:21:41;;;;;;;;;;;10.60;99.90;;;;;;5091836;28;20419;-66
2022/09/16 01:24:09;;;;;;;;;;;10.80;99.90;;;;;;5091412;28;19924;-67
2022/09/16 01:26:54;;;;;;;;;;;10.80;99.90;;;;;;5090672;28;20116;-69
2022/09/16 01:29:19;;;;;;;;;;;10.70;99.90;;;;;;5091308;28;20397;-66
2022/09/16 01:31:51;;;;;;;;;;;10.90;99.90;;;;;;5091430;28;19923;-68
2022/09/16 01:34:19;;;;;;;;;;;10.80;99.90;;;;;;5091273;28;20408;-67
2022/09/16 01:37:04;;;;;;;;;;;10.90;99.90;;;;;;5091732;27;20013;-67
2022/09/16 01:39:39;;;;;;;;;;;10.90;99.90;;;;;;5072900;28;19976;-67
2022/09/16 01:42:29;;;;;;;;;;;10.90;99.90;;;;;;5091584;28;20440;-68
2022/09/16 01:45:09;;;;;;;;;;;11.00;99.90;;;;;;5090984;28;20216;-68
2022/09/16 01:47:39;;;;;;;;;;;11.00;99.90;;;;;;5073794;28;19920;-67
2022/09/16 01:50:11;;;;;;;;;;;11.10;99.90;;;;;;5071813;28;19959;-71
2022/09/16 01:53:03;;;;;;;;;;;11.00;99.90;;;;;;5072201;28;19965;-68
2022/09/16 01:55:39;;;;;;;;;;;10.90;99.90;;;;;;5071843;28;19920;-68
2022/09/16 01:58:04;;;;;;;;;;;11.00;99.90;;;;;;5071826;28;19920;-68
2022/09/16 02:00:31;;;;;;;;;;;11.00;99.90;;;;;;5072262;28;20554;-67
2022/09/16 02:03:05;;;;;;;;;;;11.00;99.90;;;;;;5071548;28;20147;-67
2022/09/16 02:05:30;;;;;;;;;;;10.90;99.90;;;;;;5071596;28;19924;-68
2022/09/16 02:07:59;;;;;;;;;;;11.00;99.90;;;;;;5071406;28;20234;-69
2022/09/16 02:10:26;;;;;;;;;;;11.10;99.90;;;;;;5070323;28;20214;-69
2022/09/16 02:12:54;;;;;;;;;;;11.00;99.90;;;;;;5071874;28;19924;-70
2022/09/16 02:15:21;;;;;;;;;;;10.80;99.90;;;;;;5071494;28;19924;-67
2022/09/16 02:17:50;;;;;;;;;;;10.90;99.90;;;;;;5071557;28;19924;-66
2022/09/16 02:20:18;;;;;;;;;;;10.80;99.90;;;;;;5071380;28;19931;-70
2022/09/16 02:22:47;;;;;;;;;;;10.70;99.90;;;;;;5071623;28;19974;-67
2022/09/16 02:25:14;;;;;;;;;;;10.70;99.90;;;;;;5072430;28;19931;-68
2022/09/16 02:27:40;;;;;;;;;;;10.60;99.90;;;;;;5071773;28;20040;-68
2022/09/16 02:30:08;;;;;;;;;;;10.60;99.90;;;;;;5071662;28;20431;-67
2022/09/16 02:32:36;;;;;;;;;;;10.50;99.90;;;;;;5071337;28;19924;-69
2022/09/16 02:35:02;;;;;;;;;;;10.50;99.90;;;;;;5072917;28;19924;-67
2022/09/16 02:37:29;;;;;;;;;;;10.60;99.90;;;;;;5073101;28;20424;-67
2022/09/16 02:40:00;;;;;;;;;;;10.30;99.90;;;;;;5088309;28;19934;-68
2022/09/16 02:42:27;;;;;;;;;;;10.30;99.90;;;;;;5091073;28;20278;-69
2022/09/16 02:44:53;;;;;;;;;;;10.30;99.90;;;;;;5091210;28;20015;-67
2022/09/16 02:47:45;;;;;;;;;;;10.50;99.90;;;;;;5091600;28;19924;-67
2022/09/16 02:50:14;;;;;;;;;;;10.40;99.90;;;;;;5065983;28;19920;-66
2022/09/16 02:53:06;;;;;;;;;;;10.20;99.90;;;;;;5070465;28;20148;-67
2022/09/16 02:55:44;;;;;;;;;;;10.10;99.90;;;;;;5067749;28;20382;-66
2022/09/16 02:58:10;;;;;;;;;;;10.20;99.90;;;;;;5070021;28;19931;-67
2022/09/16 03:00:39;;;;;;;;;;;10.30;99.90;;;;;;5073985;28;20385;-68
2022/09/16 03:03:04;;;;;;;;;;;10.10;99.90;;;;;;5089099;28;19931;-70
2022/09/16 03:05:30;;;;;;;;;;;10.20;99.90;;;;;;5087683;28;20339;-67
2022/09/16 03:07:56;;;;;;;;;;;10.00;99.90;;;;;;5089717;28;20076;-69
2022/09/16 03:10:28;;;;;;;;;;;9.80;99.90;;;;;;5087781;28;20064;-67
2022/09/16 03:13:06;;;;;;;;;;;9.80;99.90;;;;;;5085985;28;20609;-69
2022/09/16 03:15:40;;;;;;;;;;;9.80;99.90;;;;;;5076392;28;19924;-67
2022/09/16 03:18:35;;;;;;;;;;;9.70;99.90;;;;;;5091240;28;19958;-67
2022/09/16 03:21:14;;;;;;;;;;;9.80;99.90;;;;;;5079854;28;19927;-67
2022/09/16 03:23:48;;;;;;;;;;;10.00;99.90;;;;;;5088716;28;19920;-68
2022/09/16 03:26:34;;;;;;;;;;;10.00;99.90;;;;;;5087831;28;19923;-67
2022/09/16 03:29:18;;;;;;;;;;;10.20;99.90;;;;;;5089022;28;20375;-67
2022/09/16 03:31:44;;;;;;;;;;;10.20;99.90;;;;;;5084399;28;20303;-68
2022/09/16 03:34:19;;;;;;;;;;;10.40;99.90;;;;;;5078562;28;19920;-68
2022/09/16 03:36:48;;;;;;;;;;;10.40;99.90;;;;;;5089108;28;19980;-67
2022/09/16 03:39:14;;;;;;;;;;;10.40;99.90;;;;;;5089240;28;19930;-68
2022/09/16 03:41:40;;;;;;;;;;;10.20;99.90;;;;;;5089566;28;20209;-71
2022/09/16 03:44:05;;;;;;;;;;;10.30;99.90;;;;;;5073754;28;20337;-67
2022/09/16 03:46:31;;;;;;;;;;;10.20;99.90;;;;;;5051615;28;19931;-67
2022/09/16 03:48:57;;;;;;;;;;;10.10;99.90;;;;;;5069362;28;20189;-69
2022/09/16 03:51:23;;;;;;;;;;;9.90;99.90;;;;;;5069989;28;20300;-67
2022/09/16 03:53:50;;;;;;;;;;;9.80;99.90;;;;;;5071994;28;19927;-67
2022/09/16 03:56:15;;;;;;;;;;;9.70;99.90;;;;;;5089192;28;20153;-67
2022/09/16 03:58:41;;;;;;;;;;;9.80;99.90;;;;;;5089715;28;20410;-68
2022/09/16 04:01:06;;;;;;;;;;;9.60;99.90;;;;;;5070143;28;19923;-67
2022/09/16 04:03:35;;;;;;;;;;;9.60;99.90;;;;;;5071698;28;19924;-68
2022/09/16 04:06:01;;;;;;;;;;;9.70;99.90;;;;;;5072104;28;20018;-66
2022/09/16 04:08:26;;;;;;;;;;;9.60;99.90;;;;;;5073387;28;19920;-67
2022/09/16 04:10:56;;;;;;;;;;;9.70;99.90;;;;;;5072287;28;20611;-67
2022/09/16 04:13:22;;;;;;;;;;;9.70;99.90;;;;;;5080275;28;19923;-66
2022/09/16 04:15:49;;;;;;;;;;;9.60;99.90;;;;;;5092330;28;20402;-68
2022/09/16 04:18:14;;;;;;;;;;;9.60;99.90;;;;;;5092799;28;19924;-67
2022/09/16 04:20:41;;;;;;;;;;;9.50;99.90;;;;;;5092274;28;19926;-69
2022/09/16 04:23:06;;;;;;;;;;;9.60;99.90;;;;;;5072211;28;20217;-67
2022/09/16 04:25:32;;;;;;;;;;;9.70;99.90;;;;;;5072797;28;20446;-68
2022/09/16 04:27:58;;;;;;;;;;;9.70;99.90;;;;;;5079708;28;19924;-68
2022/09/16 04:30:24;;;;;;;;;;;9.60;99.90;;;;;;5091188;28;19920;-68
2022/09/16 04:32:53;;;;;;;;;;;9.80;99.90;;;;;;5092213;28;20371;-68
2022/09/16 04:35:18;;;;;;;;;;;9.80;99.90;;;;;;5092609;28;20783;-68
2022/09/16 04:37:44;;;;;;;;;;;9.80;99.90;;;;;;5093033;27;20201;-68
2022/09/16 04:40:10;;;;;;;;;;;9.60;99.90;;;;;;5090914;28;20221;-67
2022/09/16 04:42:35;;;;;;;;;;;9.70;99.90;;;;;;5093245;28;19930;-66
2022/09/16 04:45:01;;;;;;;;;;;9.60;99.90;;;;;;5082010;28;19924;-68
2022/09/16 04:47:27;;;;;;;;;;;9.60;99.90;;;;;;5071746;28;20355;-68
2022/09/16 04:49:53;;;;;;;;;;;9.60;99.90;;;;;;5074987;28;20022;-68
2022/09/16 04:52:18;;;;;;;;;;;9.60;99.90;;;;;;5079448;28;19924;-69
2022/09/16 04:54:44;;;;;;;;;;;9.60;99.90;;;;;;5071871;28;20288;-67
2022/09/16 04:57:10;;;;;;;;;;;9.60;99.90;;;;;;5074542;28;19919;-66
2022/09/16 04:59:35;;;;;;;;;;;9.70;99.90;;;;;;5073475;28;19924;-67
2022/09/16 05:02:01;;;;;;;;;;;9.90;99.90;;;;;;5072666;28;19988;-66
2022/09/16 05:04:27;;;;;;;;;;;10.00;99.90;;;;;;5072723;28;19920;-69
2022/09/16 05:06:52;;;;;;;;;;;10.20;99.90;;;;;;5071913;28;20371;-66
2022/09/16 05:09:21;;;;;;;;;;;10.40;99.90;;;;;;5074777;28;19974;-68
2022/09/16 05:11:47;;;;;;;;;;;10.60;99.90;;;;;;5073869;28;20110;-68
2022/09/16 05:14:14;;;;;;;;;;;10.70;99.90;;;;;;5071411;28;20157;-70
2022/09/16 05:16:40;;;;;;;;;;;10.70;99.90;;;;;;5072636;28;19920;-68
2022/09/16 05:19:06;;;;;;;;;;;10.70;99.90;;;;;;5073769;28;20405;-67
2022/09/16 05:21:35;;;;;;;;;;;10.80;99.90;;;;;;5074558;28;19920;-67
2022/09/16 05:24:01;;;;;;;;;;;10.70;99.90;;;;;;5072256;28;20305;-70
2022/09/16 05:26:28;;;;;;;;;;;10.70;99.90;;;;;;5071620;28;20059;-68
2022/09/16 05:28:53;;;;;;;;;;;10.90;99.90;;;;;;5074104;28;19970;-68
2022/09/16 05:31:20;;;;;;;;;;;10.90;99.90;;;;;;5073972;28;20289;-67
2022/09/16 05:33:47;;;;;;;;;;;11.10;99.90;;;;;;5074209;28;19927;-71
2022/09/16 05:36:14;;;;;;;;;;;11.30;99.90;;;;;;5072176;28;20844;-67
2022/09/16 05:38:39;;;;;;;;;;;11.30;99.90;;;;;;5072404;28;20432;-66
2022/09/16 05:41:05;;;;;;;;;;;11.30;99.90;;;;;;5072311;28;20508;-66
2022/09/16 05:43:31;;;;;;;;;;;11.40;99.90;;;;;;5071873;28;20289;-68
2022/09/16 05:45:57;;;;;;;;;;;11.30;99.90;;;;;;5072166;28;19924;-66
2022/09/16 05:48:23;;;;;;;;;;;11.50;99.90;;;;;;5072109;28;19924;-68
2022/09/16 05:50:52;;;;;;;;;;;11.40;99.90;;;;;;5072329;28;20331;-68
2022/09/16 05:53:18;;;;;;;;;;;11.30;99.90;;;;;;5072892;28;19923;-68
2022/09/16 05:55:53;;;;;;;;;;;11.30;99.90;;;;;;5072368;28;19930;-67
2022/09/16 05:58:18;;;;;;;;;;;11.30;99.90;;;;;;5071742;28;20299;-67
2022/09/16 06:00:44;;;;;;;;;;;11.30;99.90;;;;;;5073063;28;19930;-67
2022/09/16 06:03:09;;;;;;;;;;;11.40;99.90;;;;;;5079130;28;20006;-67
2022/09/16 06:05:35;;;;;;;;;;;11.40;99.90;;;;;;5094449;28;19928;-67
2022/09/16 06:08:00;;;;;;;;;;;11.50;99.90;;;;;;5092106;28;19928;-68
2022/09/16 06:10:26;;;;;;;;;;;11.50;99.90;;;;;;5074493;28;19938;-66
2022/09/16 06:12:51;;;;;;;;;;;11.50;99.90;;;;;;5089646;28;19923;-68
2022/09/16 06:15:17;;;;;;;;;;;11.50;99.90;;;;;;5090715;28;19924;-67
2022/09/16 06:17:42;;;;;;;;;;;11.50;99.90;;;;;;5093170;28;19924;-69
2022/09/16 06:20:12;;;;;;;;;;;11.50;99.90;;;;;;5095567;28;20427;-68
2022/09/16 06:22:39;;;;;;;;;;;11.50;99.90;;;;;;5094764;28;19927;-66
2022/09/16 06:25:04;;;;;;;;;;;11.50;99.90;;;;;;5093196;28;19968;-68
2022/09/16 06:27:30;;;;;;;;;;;11.50;99.90;;;;;;5091925;28;20302;-67
2022/09/16 06:29:56;;;;;;;;;;;11.60;99.90;;;;;;5092758;28;19998;-69
2022/09/16 06:32:21;;;;;;;;;;;11.50;99.90;;;;;;5075208;28;19924;-69
2022/09/16 06:34:47;;;;;;;;;;;11.40;99.90;;;;;;5092558;28;19924;-66
2022/09/16 06:37:13;;;;;;;;;;;11.40;99.90;;;;;;5092854;28;19928;-68
2022/09/16 06:39:39;;;;;;;;;;;11.20;99.90;;;;;;5080290;28;19968;-68
2022/09/16 06:42:08;;;;;;;;;;;11.30;99.90;;;;;;5077821;28;19928;-68
2022/09/16 06:44:33;;;;;;;;;;;11.70;99.90;;;;;;5072775;28;19923;-69
2022/09/16 06:46:59;;;;;;;;;;;12.10;99.90;;;;;;5072750;28;19928;-68
2022/09/16 06:49:25;;;;;;;;;;;12.50;99.90;;;;;;5072555;28;19934;-68
2022/09/16 06:51:50;;;;;;;;;;;12.90;99.90;;;;;;5071921;28;19930;-68
2022/09/16 06:54:16;;;;;;;;;;;13.10;99.90;;;;;;5088589;28;20004;-67
2022/09/16 06:56:42;;;;;;;;;;;13.40;99.90;;;;;;5074216;28;19959;-67
2022/09/16 06:59:08;;;;;;;;;;;13.70;99.90;;;;;;5089293;28;20348;-68
2022/09/16 07:01:34;;;;;;;;;;;14.10;99.90;;;;;;5071739;28;20269;-68
2022/09/16 07:04:09;;;;;;;;;;;14.40;99.90;;;;;;5070754;28;20346;-67
2022/09/16 07:06:34;;;;;;;;;;;14.70;99.90;;;;;;5076442;28;19967;-68
2022/09/16 07:09:00;;;;;;;;;;;15.10;99.90;;;;;;5071589;28;20019;-67
2022/09/16 07:11:26;;;;;;;;;;;15.40;99.90;;;;;;5072678;28;19924;-67
2022/09/16 07:13:51;;;;;;;;;;;15.40;99.90;;;;;;5073118;28;20308;-67
2022/09/16 07:16:18;;;;;;;;;;;15.90;99.90;;;;;;5073201;28;19924;-67
2022/09/16 07:18:45;;;;;;;;;;;16.20;99.90;;;;;;5074983;28;19934;-67
2022/09/16 07:21:13;;;;;;;;;;;14.90;99.90;;;;;;5086144;28;20297;-68
2022/09/16 07:23:40;;;;;;;;;;;14.40;99.90;;;;;;5076313;28;19946;-66
2022/09/16 07:26:07;;;;;;;;;;;13.70;99.90;;;;;;5094908;28;19934;-67
2022/09/16 07:28:33;;;;;;;;;;;13.30;99.90;;;;;;5088779;28;20121;-67
2022/09/16 07:31:00;;;;;;;;;;;13.10;99.90;;;;;;5075159;28;20422;-68
2022/09/16 07:33:25;;;;;;;;;;;13.00;99.90;;;;;;5075893;28;19924;-67
2022/09/16 07:35:51;;;;;;;;;;;13.00;99.90;;;;;;5076817;28;19924;-68
2022/09/16 07:38:16;;;;;;;;;;;13.20;99.90;;;;;;5093049;28;19973;-67
2022/09/16 07:40:42;;;;;;;;;;;13.60;99.90;;;;;;5082963;28;20315;-66
2022/09/16 07:43:07;;;;;;;;;;;14.00;99.90;;;;;;5095743;28;19945;-68
2022/09/16 07:45:33;;;;;;;;;;;14.60;99.90;;;;;;5095374;28;19934;-67
2022/09/16 07:47:58;;;;;;;;;;;15.10;99.90;;;;;;5096148;28;19938;-69
2022/09/16 07:50:24;;;;;;;;;;;15.40;99.90;;;;;;5096250;28;19927;-69
2022/09/16 07:52:53;;;;;;;;;;;16.00;99.90;;;;;;5095423;28;19924;-68
2022/09/16 07:55:19;;;;;;;;;;;15.90;99.90;;;;;;5095467;28;19931;-70
2022/09/16 07:57:44;;;;;;;;;;;16.20;99.90;;;;;;5094989;28;19927;-67
2022/09/16 08:00:10;;;;;;;;;;;16.50;99.90;;;;;;5095152;28;20098;-70
2022/09/16 08:02:36;;;;;;;;;;;16.70;99.90;;;;;;5095928;28;19924;-69
2022/09/16 08:05:02;;;;;;;;;;;16.50;99.90;;;;;;5095769;27;19924;-67
2022/09/16 08:07:29;;;;;;;;;;;16.80;99.90;;;;;;5095616;28;20034;-67
2022/09/16 08:09:55;;;;;;;;;;;16.70;99.90;;;;;;5095068;28;20311;-68
2022/09/16 08:12:20;;;;;;;;;;;16.60;99.90;;;;;;5095554;28;19923;-69
2022/09/16 08:14:46;;;;;;;;;;;16.80;99.90;;;;;;5091914;28;19927;-69
2022/09/16 08:17:11;;;;;;;;;;;16.80;99.90;;;;;;5095252;28;20205;-66
2022/09/16 08:19:38;;;;;;;;;;;16.70;99.90;;;;;;5095607;28;19930;-69
2022/09/16 08:22:03;;;;;;;;;;;16.80;99.90;;;;;;5095369;28;19964;-68
2022/09/16 08:24:29;;;;;;;;;;;17.00;99.90;;;;;;5094791;28;19928;-66
2022/09/16 08:26:55;;;;;;;;;;;16.80;99.90;;;;;;5093655;28;19927;-67
2022/09/16 08:29:21;;;;;;;;;;;17.00;99.90;;;;;;5074378;28;19923;-67
2022/09/16 08:31:47;;;;;;;;;;;17.10;99.90;;;;;;5091407;28;20004;-67
2022/09/16 08:34:12;;;;;;;;;;;16.90;99.90;;;;;;5095131;28;19920;-67
2022/09/16 08:36:38;;;;;;;;;;;17.40;99.90;;;;;;5095083;28;19966;-67
2022/09/16 08:39:03;;;;;;;;;;;17.20;98.90;;;;;;5095051;28;19978;-68
2022/09/16 08:41:35;;;;;;;;;;;17.60;99.90;;;;;;5094749;28;20303;-68
2022/09/16 08:44:19;;;;;;;;;;;17.10;99.90;;;;;;5077799;28;19974;-67
2022/09/16 08:46:50;;;;;;;;;;;17.60;99.90;;;;;;5074686;28;19928;-67
2022/09/16 08:49:18;;;;;;;;;;;17.50;99.90;;;;;;5075500;28;19935;-68
2022/09/16 08:51:45;;;;;;;;;;;16.50;99.90;;;;;;5075221;28;19969;-67
2022/09/16 08:54:24;;;;;;;;;;;15.40;99.90;;;;;;5075034;28;19924;-69
2022/09/16 08:56:49;;;;;;;;;;;14.80;99.90;;;;;;5085616;28;20006;-69
2022/09/16 08:59:19;;;;;;;;;;;14.50;99.90;;;;;;5094701;28;19934;-68
2022/09/16 09:01:51;;;;;;;;;;;14.50;99.90;;;;;;5094351;28;20460;-68
2022/09/16 09:04:17;;;;;;;;;;;14.40;99.90;;;;;;5094664;28;19930;-68
2022/09/16 09:06:42;;;;;;;;;;;14.50;99.90;;;;;;5089057;28;19924;-67
2022/09/16 09:09:11;;;;;;;;;;;14.30;99.90;;;;;;5080547;28;20247;-70
2022/09/16 09:11:40;;;;;;;;;;;14.10;99.90;;;;;;5087408;27;20564;-68
2022/09/16 09:14:05;;;;;;;;;;;13.90;99.90;;;;;;5074440;27;19967;-67
2022/09/16 09:16:40;;;;;;;;;;;13.90;99.90;;;;;;5071676;28;20049;-67
2022/09/16 09:19:12;;;;;;;;;;;14.50;99.90;;;;;;5073450;28;19954;-68
2022/09/16 09:21:44;;;;;;;;;;;15.50;99.90;;;;;;5074766;28;19920;-67
2022/09/16 09:24:30;;;;;;;;;;;16.20;99.90;;;;;;5074497;28;19996;-70
2022/09/16 09:26:57;;;;;;;;;;;17.10;99.90;;;;;;5077613;28;19977;-70
2022/09/16 09:29:30;;;;;;;;;;;16.90;99.90;;;;;;5086020;28;20595;-68
2022/09/16 09:31:58;;;;;;;;;;;16.70;99.90;;;;;;5093827;28;19924;-67
2022/09/16 09:34:30;;;;;;;;;;;16.80;99.90;;;;;;5092733;28;20367;-68
2022/09/16 09:36:58;;;;;;;;;;;17.10;99.90;;;;;;5085418;28;20134;-68
2022/09/16 09:39:55;;;;;;;;;;;18.00;99.90;;;;;;5074538;28;20379;-68
2022/09/16 09:42:23;;;;;;;;;;;17.60;99.90;;;;;;5034484;28;20015;-67
2022/09/16 09:45:02;;;;;;;;;;;14.70;99.90;;;;;;5074771;28;19920;-68
2022/09/16 09:47:48;;;;;;;;;;;13.40;99.90;;;;;;5079349;28;19992;-68
2022/09/16 09:50:18;;;;;;;;;;;12.40;99.90;;;;;;5093980;28;20019;-69
2022/09/16 09:52:46;;;;;;;;;;;11.80;99.90;;;;;;5093847;28;20010;-66
2022/09/16 09:55:14;;;;;;;;;;;11.60;99.90;;;;;;5094519;28;19934;-67
2022/09/16 09:57:43;;;;;;;;;;;11.40;99.90;;;;;;5074584;28;20030;-68
2022/09/16 10:00:14;;;;;;;;;;;11.50;99.90;;;;;;5093945;28;19966;-68
2022/09/16 10:02:41;;;;;;;;;;;12.10;99.90;;;;;;5093988;28;19927;-70
2022/09/16 10:05:17;;;;;;;;;;;13.10;99.90;;;;;;5093643;28;19967;-67
2022/09/16 10:07:43;;;;;;;;;;;13.80;99.90;;;;;;5094409;28;20409;-70
2022/09/16 10:10:16;;;;;;;;;;;14.20;99.90;;;;;;5094203;28;19924;-67
2022/09/16 10:12:43;;;;;;;;;;;14.50;99.90;;;;;;5093950;28;20406;-68
2022/09/16 10:15:21;;;;;;;;;;;15.20;99.90;;;;;;5093295;28;19963;-68
2022/09/16 10:17:48;;;;;;;;;;;16.00;99.90;;;;;;5096367;28;19969;-68
2022/09/16 10:20:34;;;;;;;;;;;16.50;99.90;;;;;;5093403;28;19927;-70
2022/09/16 10:23:01;;;;;;;;;;;17.00;99.90;;;;;;5093220;28;20035;-67
2022/09/16 10:25:28;;;;;;;;;;;16.10;99.90;;;;;;5091403;28;20644;-69
2022/09/16 10:27:57;;;;;;;;;;;15.00;99.90;;;;;;5091926;28;19950;-67
2022/09/16 10:30:22;;;;;;;;;;;14.20;99.90;;;;;;5090808;28;20011;-68
2022/09/16 10:32:54;;;;;;;;;;;14.00;99.90;;;;;;5090734;28;20265;-68
2022/09/16 10:35:24;;;;;;;;;;;14.10;99.90;;;;;;5091086;28;19923;-69
2022/09/16 10:37:54;;;;;;;;;;;15.10;99.90;;;;;;5090696;28;19923;-70
2022/09/16 10:40:22;;;;;;;;;;;16.10;99.90;;;;;;5090146;28;20014;-66
2022/09/16 10:42:48;;;;;;;;;;;16.50;99.90;;;;;;5090280;28;20056;-68
2022/09/16 10:45:23;;;;;;;;;;;16.70;99.90;;;;;;5090483;28;19927;-66
2022/09/16 10:47:51;;;;;;;;;;;17.10;99.90;;;;;;5090581;28;20314;-68
2022/09/16 10:50:17;;;;;;;;;;;17.40;99.90;;;;;;5091072;28;19924;-68
2022/09/16 10:52:45;;;;;;;;;;;17.60;99.90;;;;;;5076494;28;20014;-67
2022/09/16 10:55:24;;;;;;;;;;;17.70;99.90;;;;;;5078253;28;20362;-71
2022/09/16 10:57:50;;;;;;;;;;;17.00;99.90;;;;;;5071307;28;19923;-70
2022/09/16 11:00:20;;;;;;;;;;;17.00;99.90;;;;;;5085832;28;19923;-68
2022/09/16 11:03:05;;;;;;;;;;;16.40;99.90;;;;;;5090749;28;20334;-67
2022/09/16 11:05:49;;;;;;;;;;;16.40;99.90;;;;;;5072498;28;19924;-68
2022/09/16 11:08:19;;;;;;;;;;;16.70;99.90;;;;;;5092634;28;19961;-68
2022/09/16 11:10:56;;;;;;;;;;;17.20;99.90;;;;;;5090329;28;20387;-68
2022/09/16 11:13:42;;;;;;;;;;;17.70;99.90;;;;;;5092088;28;19933;-69
2022/09/16 11:16:08;;;;;;;;;;;17.90;99.90;;;;;;5091749;28;20492;-69
2022/09/16 11:18:45;;;;;;;;;;;17.60;99.90;;;;;;5092559;28;20026;-67
2022/09/16 11:21:23;;;;;;;;;;;17.50;99.90;;;;;;5091028;28;20441;-68
2022/09/16 11:24:07;;;;;;;;;;;17.80;99.90;;;;;;5091882;28;20076;-70
2022/09/16 11:26:59;;;;;;;;;;;17.80;99.90;;;;;;5092028;28;19973;-68
2022/09/16 11:29:37;;;;;;;;;;;18.20;99.90;;;;;;5070160;28;20596;-68
2022/09/16 11:32:20;;;;;;;;;;;17.80;99.90;;;;;;5073394;28;20209;-68
2022/09/16 11:34:46;;;;;;;;;;;18.10;99.90;;;;;;5074991;28;20661;-67
2022/09/16 11:37:27;;;;;;;;;;;17.60;99.90;;;;;;5092245;28;20022;-70
2022/09/16 11:39:56;;;;;;;;;;;17.10;99.90;;;;;;5091597;28;19923;-68
2022/09/16 11:42:24;;;;;;;;;;;16.80;99.90;;;;;;5091868;28;19930;-67
2022/09/16 11:45:04;;;;;;;;;;;17.00;99.90;;;;;;5076208;28;20211;-67
2022/09/16 11:47:55;;;;;;;;;;;17.00;99.90;;;;;;5081895;28;19923;-70
2022/09/16 11:50:31;;;;;;;;;;;16.90;99.90;;;;;;5072767;28;20382;-67
2022/09/16 11:53:06;;;;;;;;;;;17.10;99.90;;;;;;5071471;28;19924;-68
2022/09/16 11:56:00;;;;;;;;;;;16.70;99.90;;;;;;5072662;28;20114;-68
2022/09/16 11:58:30;;;;;;;;;;;17.20;99.90;;;;;;5058529;28;19928;-66
2022/09/16 12:00:59;;;;;;;;;;;16.90;99.90;;;;;;5071449;28;19963;-70
2022/09/16 12:03:31;;;;;;;;;;;16.90;99.90;;;;;;5071261;28;19924;-70
2022/09/16 12:06:03;;;;;;;;;;;16.80;99.90;;;;;;5072837;28;20334;-71
2022/09/16 12:08:52;;;;;;;;;;;16.60;99.90;;;;;;5088916;28;19984;-67
2022/09/16 12:11:35;;;;;;;;;;;16.40;99.90;;;;;;5086384;28;20018;-68
2022/09/16 12:14:13;;;;;;;;;;;16.50;99.90;;;;;;5092173;28;20015;-68
2022/09/16 12:16:51;;;;;;;;;;;16.30;99.90;;;;;;5085353;28;20342;-68
2022/09/16 12:19:20;;;;;;;;;;;16.10;99.90;;;;;;5072313;28;19924;-68
2022/09/16 12:21:48;;;;;;;;;;;16.20;99.90;;;;;;5072863;28;19924;-68
2022/09/16 12:24:31;;;;;;;;;;;16.30;99.90;;;;;;5080906;28;20299;-72
2022/09/16 12:27:12;;;;;;;;;;;16.10;99.90;;;;;;5079464;28;19924;-68
2022/09/16 12:29:40;;;;;;;;;;;15.90;99.90;;;;;;5076041;28;19931;-69
2022/09/16 12:32:16;;;;;;;;;;;16.00;99.90;;;;;;5076536;28;19963;-68
2022/09/16 12:34:48;;;;;;;;;;;15.80;99.90;;;;;;5074712;28;19924;-69
2022/09/16 12:37:23;;;;;;;;;;;16.10;99.90;;;;;;5073869;28;19976;-68
2022/09/16 12:39:49;;;;;;;;;;;16.00;99.90;;;;;;5074036;28;20513;-70
2022/09/16 12:42:34;;;;;;;;;;;16.20;99.90;;;;;;5073894;28;20018;-68
2022/09/16 12:44:59;;;;;;;;;;;16.20;99.90;;;;;;5076373;28;20320;-67
2022/09/16 12:47:39;;;;;;;;;;;16.20;99.90;;;;;;5076195;28;19939;-71
2022/09/16 12:50:11;;;;;;;;;;;16.30;99.90;;;;;;5092924;28;20434;-70
2022/09/16 12:52:56;;;;;;;;;;;16.70;99.90;;;;;;5092390;28;20023;-68
2022/09/16 12:55:28;;;;;;;;;;;17.10;99.90;;;;;;5075667;28;20251;-70
2022/09/16 12:58:08;;;;;;;;;;;17.30;99.90;;;;;;5077871;28;20179;-69
2022/09/16 13:00:43;;;;;;;;;;;17.20;99.90;;;;;;5094272;28;19931;-69
2022/09/16 13:03:16;;;;;;;;;;;16.80;99.90;;;;;;5094996;28;20432;-69
2022/09/16 13:05:45;;;;;;;;;;;16.00;99.90;;;;;;5086062;27;20278;-69
2022/09/16 13:08:19;;;;;;;;;;;15.80;99.90;;;;;;5074909;28;20397;-68
2022/09/16 13:10:53;;;;;;;;;;;15.60;99.90;;;;;;5075136;28;19947;-70
2022/09/16 13:13:22;;;;;;;;;;;15.70;99.90;;;;;;5075578;28;19924;-71
2022/09/16 13:15:58;;;;;;;;;;;15.70;99.90;;;;;;5089484;28;19969;-69
2022/09/16 13:18:36;;;;;;;;;;;15.70;99.90;;;;;;5094297;28;19931;-69
2022/09/16 13:21:06;;;;;;;;;;;15.80;99.90;;;;;;5094173;28;19963;-68
2022/09/16 13:23:39;;;;;;;;;;;15.70;99.90;;;;;;5075209;28;20010;-68
2022/09/16 13:26:08;;;;;;;;;;;15.70;99.90;;;;;;5084454;28;20173;-69
2022/09/16 13:28:36;;;;;;;;;;;15.50;99.90;;;;;;5088787;28;20011;-66
2022/09/16 13:31:15;;;;;;;;;;;15.50;99.90;;;;;;5094045;28;19930;-68
2022/09/16 13:33:42;;;;;;;;;;;15.40;99.90;;;;;;5087845;28;20139;-69
2022/09/16 13:36:21;;;;;;;;;;;15.40;99.90;;;;;;5092499;28;19924;-69
2022/09/16 13:38:48;;;;;;;;;;;15.30;99.90;;;;;;5094038;28;20386;-69
2022/09/16 13:41:27;;;;;;;;;;;15.30;99.90;;;;;;5092230;28;20654;-68
2022/09/16 13:43:53;;;;;;;;;;;15.30;99.90;;;;;;5082182;28;20379;-69
2022/09/16 13:46:30;;;;;;;;;;;15.00;99.90;;;;;;5073039;28;19923;-67
2022/09/16 13:49:01;;;;;;;;;;;14.80;99.90;;;;;;5073272;28;19924;-67
2022/09/16 13:51:28;;;;;;;;;;;13.80;99.90;;;;;;5074511;28;20470;-67
2022/09/16 13:54:03;;;;;;;;;;;12.80;99.90;;;;;;5074339;28;19927;-68
2022/09/16 13:56:47;;;;;;;;;;;12.70;99.90;;;;;;5074005;28;19980;-68
2022/09/16 13:59:46;;;;;;;;;;;12.70;99.90;;;;;;5078431;28;19980;-68
2022/09/16 14:02:11;;;;;;;;;;;12.60;99.90;;;;;;5053350;28;19931;-68
2022/09/16 14:04:49;;;;;;;;;;;12.80;99.90;;;;;;5072140;28;19924;-68
2022/09/16 14:07:27;;;;;;;;;;;12.90;99.90;;;;;;5073283;28;19928;-67
2022/09/16 14:09:58;;;;;;;;;;;13.00;99.90;;;;;;5073812;28;19985;-68
2022/09/16 14:12:32;;;;;;;;;;;13.00;99.90;;;;;;5082137;28;19923;-67
2022/09/16 14:14:58;;;;;;;;;;;13.00;99.90;;;;;;5093229;28;19924;-67
2022/09/16 14:17:26;;;;;;;;;;;13.00;99.90;;;;;;5094018;28;19930;-67
2022/09/16 14:19:55;;;;;;;;;;;12.80;99.90;;;;;;5087599;28;19924;-68
2022/09/16 14:22:21;;;;;;;;;;;13.00;99.90;;;;;;5073547;28;19920;-70
2022/09/16 14:24:47;;;;;;;;;;;12.90;99.90;;;;;;5073631;28;19924;-68
2022/09/16 14:27:37;;;;;;;;;;;13.00;99.90;;;;;;5073508;28;19928;-69
2022/09/16 14:30:13;;;;;;;;;;;12.90;99.90;;;;;;5081178;28;19973;-69
2022/09/16 14:32:39;;;;;;;;;;;12.90;99.90;;;;;;5090708;28;20371;-68
2022/09/16 14:35:10;;;;;;;;;;;13.10;99.90;;;;;;5074471;28;19971;-68